createdAt,value
2018-11-27T00:00:30.558Z,14.67
2018-11-27T00:03:00.514Z,10.23
2018-11-27T00:05:29.441Z,11.10
2018-11-27T00:07:57.644Z,11.27
2018-11-27T00:10:25.799Z,8.83
2018-11-27T00:12:53.987Z,17.10
2018-11-27T00:15:22.153Z,13.63
2018-11-27T00:17:50.551Z,11.37
2018-11-27T00:20:18.719Z,6.53
2018-11-27T00:22:46.899Z,10.87
2018-11-27T00:25:16.335Z,20.33
2018-11-27T00:27:44.523Z,12.73
2018-11-27T00:30:14.987Z,11.27
2018-11-27T00:32:43.166Z,15.73
2018-11-27T00:35:13.147Z,11.10
2018-11-27T00:37:41.386Z,14.90
2018-11-27T00:40:13.791Z,12.77
2018-11-27T00:42:42.000Z,21.07
2018-11-27T00:45:12.223Z,17.67
2018-11-27T00:47:40.523Z,17.20
2018-11-27T00:50:12.738Z,24.00
2018-11-27T00:52:40.935Z,20.47
2018-11-27T00:55:11.032Z,20.57
2018-11-27T00:57:39.707Z,17.30
2018-11-27T01:00:12.792Z,17.37
2018-11-27T01:02:40.984Z,22.90
2018-11-27T01:05:10.788Z,21.80
2018-11-27T01:07:38.998Z,14.20
2018-11-27T01:10:17.489Z,21.80
2018-11-27T01:12:45.688Z,15.87
2018-11-27T01:15:14.543Z,14.23
2018-11-27T01:17:47.021Z,11.77
2018-11-27T01:20:18.062Z,16.60
2018-11-27T01:22:46.253Z,21.73
2018-11-27T01:25:14.443Z,19.17
2018-11-27T01:27:42.629Z,15.70
2018-11-27T01:30:11.971Z,22.67
2018-11-27T01:32:40.158Z,13.60
2018-11-27T01:35:16.233Z,11.70
2018-11-27T01:37:44.558Z,10.27
2018-11-27T01:40:21.447Z,14.73
2018-11-27T01:42:51.562Z,17.80
2018-11-27T01:45:20.578Z,14.73
2018-11-27T01:47:48.858Z,12.23
2018-11-27T01:50:17.722Z,8.67
2018-11-27T01:52:45.931Z,8.17
2018-11-27T01:55:15.098Z,20.17
2018-11-27T01:57:44.384Z,15.83
2018-11-27T02:00:20.260Z,21.07
2018-11-27T02:02:48.464Z,20.03
2018-11-27T02:05:16.635Z,17.27
2018-11-27T02:07:44.822Z,8.87
2018-11-27T02:10:13.233Z,9.47
2018-11-27T02:12:42.848Z,7.73
2018-11-27T02:15:13.395Z,7.00
2018-11-27T02:17:41.571Z,7.27
2018-11-27T02:20:10.927Z,5.97
2018-11-27T02:22:39.295Z,7.27
2018-11-27T02:25:13.782Z,7.20
2018-11-27T02:27:41.947Z,5.00
2018-11-27T02:30:11.753Z,8.57
2018-11-27T02:32:39.923Z,8.40
2018-11-27T02:35:17.863Z,10.60
2018-11-27T02:37:46.688Z,7.43
2018-11-27T02:40:15.719Z,8.20
2018-11-27T02:42:43.919Z,5.83
2018-11-27T02:45:14.052Z,6.73
2018-11-27T02:47:42.492Z,7.10
2018-11-27T02:50:11.663Z,5.73
2018-11-27T02:52:39.860Z,9.30
2018-11-27T02:55:13.882Z,8.50
2018-11-27T02:57:42.073Z,6.30
2018-11-27T03:00:11.535Z,7.17
2018-11-27T03:02:39.847Z,7.67
2018-11-27T03:05:13.392Z,7.63
2018-11-27T03:07:41.581Z,9.10
2018-11-27T03:10:12.004Z,5.70
2018-11-27T03:12:40.186Z,5.23
2018-11-27T03:15:10.990Z,8.43
2018-11-27T03:17:39.313Z,12.80
2018-11-27T03:20:09.816Z,7.57
2018-11-27T03:22:38.382Z,5.03
2018-11-27T03:25:09.735Z,4.80
2018-11-27T03:27:37.953Z,4.40
2018-11-27T03:30:10.612Z,5.90
2018-11-27T03:32:38.799Z,7.10
2018-11-27T03:35:09.051Z,6.10
2018-11-27T03:37:37.225Z,5.07
2018-11-27T03:40:08.197Z,5.57
2018-11-27T03:42:36.354Z,4.50
2018-11-27T03:45:04.604Z,5.50
2018-11-27T03:47:32.845Z,4.67
2018-11-27T03:50:01.024Z,4.63
2018-11-27T03:52:29.189Z,5.73
2018-11-27T03:54:57.371Z,4.93
2018-11-27T03:57:25.772Z,10.57
2018-11-27T03:59:54.004Z,18.10
2018-11-27T04:02:22.176Z,17.43
2018-11-27T04:04:50.366Z,12.07
2018-11-27T04:07:18.524Z,10.50
2018-11-27T04:09:46.740Z,18.33
2018-11-27T04:12:14.909Z,11.23
2018-11-27T04:14:43.093Z,8.17
2018-11-27T04:17:11.255Z,10.73
2018-11-27T04:19:39.468Z,10.60
2018-11-27T04:22:07.621Z,12.63
2018-11-27T04:24:35.813Z,10.10
2018-11-27T04:27:03.972Z,8.50
2018-11-27T04:29:32.145Z,9.03
2018-11-27T04:32:00.324Z,6.20
2018-11-27T04:34:28.497Z,6.63
2018-11-27T04:36:56.688Z,6.40
2018-11-27T04:39:24.857Z,6.37
2018-11-27T04:41:53.080Z,11.17
2018-11-27T04:44:21.248Z,7.70
2018-11-27T04:46:49.439Z,11.40
2018-11-27T04:49:17.619Z,10.83
2018-11-27T04:51:45.832Z,15.97
2018-11-27T04:54:13.995Z,13.17
2018-11-27T04:57:03.452Z,11.30
2018-11-27T04:59:31.648Z,12.23
2018-11-27T05:01:59.852Z,11.27
2018-11-27T05:04:29.020Z,14.83
2018-11-27T05:06:57.224Z,9.07
2018-11-27T05:09:25.389Z,12.57
2018-11-27T05:11:54.567Z,13.03
2018-11-27T05:14:22.727Z,9.53
2018-11-27T05:16:50.907Z,15.73
2018-11-27T05:19:19.099Z,7.40
2018-11-27T05:21:47.284Z,10.00
2018-11-27T05:24:15.468Z,6.07
2018-11-27T05:26:43.672Z,5.60
2018-11-27T05:29:11.836Z,5.80
2018-11-27T05:31:40.031Z,7.87
2018-11-27T05:34:08.239Z,11.37
2018-11-27T05:36:36.394Z,11.10
2018-11-27T05:39:08.127Z,14.33
2018-11-27T05:41:36.579Z,13.47
2018-11-27T05:44:06.631Z,19.20
2018-11-27T05:46:34.827Z,12.80
2018-11-27T05:49:03.344Z,12.60
2018-11-27T05:51:31.559Z,15.17
2018-11-27T05:53:59.731Z,10.80
2018-11-27T05:56:27.910Z,20.47
2018-11-27T05:58:56.072Z,13.63
2018-11-27T06:01:24.263Z,13.03
2018-11-27T06:03:52.561Z,21.27
2018-11-27T06:06:22.054Z,13.67
2018-11-27T06:08:50.206Z,14.73
2018-11-27T06:11:18.430Z,18.43
2018-11-27T06:13:46.606Z,21.53
2018-11-27T06:16:14.790Z,18.27
2018-11-27T06:18:43.023Z,13.57
2018-11-27T06:21:11.213Z,13.70
2018-11-27T06:23:39.414Z,11.80
2018-11-27T06:26:07.713Z,15.63
2018-11-27T06:28:35.971Z,13.97
2018-11-27T06:31:04.147Z,9.90
2018-11-27T06:33:32.330Z,16.80
2018-11-27T06:36:00.503Z,13.67
2018-11-27T06:38:29.212Z,14.47
2018-11-27T06:40:58.069Z,14.63
2018-11-27T06:43:27.074Z,13.33
2018-11-27T06:45:57.290Z,8.47
2018-11-27T06:48:26.636Z,13.67
2018-11-27T06:50:54.991Z,10.50
2018-11-27T06:53:23.179Z,15.30
2018-11-27T06:55:51.453Z,16.80
2018-11-27T06:58:19.653Z,19.37
2018-11-27T07:00:47.831Z,16.93
2018-11-27T07:03:16.083Z,14.53
2018-11-27T07:05:44.253Z,13.40
2018-11-27T07:08:12.437Z,12.23
2018-11-27T07:10:42.286Z,14.33
2018-11-27T07:13:19.806Z,11.17
2018-11-27T07:15:49.582Z,14.53
2018-11-27T07:18:17.786Z,13.93
2018-11-27T07:20:45.964Z,10.00
2018-11-27T07:23:14.166Z,11.43
2018-11-27T07:25:42.327Z,16.30
2018-11-27T07:28:10.591Z,11.60
2018-11-27T07:30:40.061Z,18.63
2018-11-27T07:33:08.323Z,28.60
2018-11-27T07:35:36.877Z,20.33
2018-11-27T07:38:05.304Z,13.73
2018-11-27T07:40:34.755Z,26.37
2018-11-27T07:43:05.840Z,15.10
2018-11-27T07:45:34.316Z,17.50
2018-11-27T07:48:02.536Z,14.50
2018-11-27T07:50:30.747Z,14.00
2018-11-27T07:52:58.953Z,8.40
2018-11-27T07:55:27.144Z,10.03
2018-11-27T07:57:58.492Z,14.53
2018-11-27T08:00:28.195Z,19.17
2018-11-27T08:02:58.031Z,14.03
2018-11-27T08:05:37.617Z,13.33
2018-11-27T08:08:07.098Z,7.00
2018-11-27T08:10:35.235Z,8.70
2018-11-27T08:13:03.420Z,8.33
2018-11-27T08:15:31.723Z,9.33
2018-11-27T08:17:59.900Z,7.17
2018-11-27T08:20:30.775Z,10.20
2018-11-27T08:23:02.935Z,8.37
2018-11-27T08:25:31.111Z,6.50
2018-11-27T08:27:59.299Z,6.03
2018-11-27T08:30:30.899Z,6.23
2018-11-27T08:32:59.103Z,7.77
2018-11-27T08:35:28.551Z,5.53
2018-11-27T08:37:58.024Z,8.60
2018-11-27T08:40:27.403Z,6.20
2018-11-27T08:42:55.577Z,4.93
2018-11-27T08:45:24.475Z,11.20
2018-11-27T08:47:54.698Z,17.77
2018-11-27T08:50:23.911Z,12.03
2018-11-27T08:52:55.289Z,9.27
2018-11-27T08:55:28.881Z,7.97
2018-11-27T08:58:02.283Z,7.53
2018-11-27T09:00:30.519Z,5.77
2018-11-27T09:02:58.695Z,9.70
2018-11-27T09:05:27.013Z,10.53
2018-11-27T09:07:55.184Z,6.43
2018-11-27T09:10:24.549Z,12.80
2018-11-27T09:12:53.140Z,19.77
2018-11-27T09:15:22.212Z,12.70
2018-11-27T09:17:51.915Z,12.80
2018-11-27T09:20:20.941Z,13.97
2018-11-27T09:22:48.562Z,16.13
2018-11-27T09:25:17.474Z,14.73
2018-11-27T09:27:45.679Z,20.00
2018-11-27T09:30:16.004Z,13.40
2018-11-27T09:32:44.191Z,13.23
2018-11-27T09:35:12.415Z,21.70
2018-11-27T09:37:40.946Z,22.70
2018-11-27T09:40:15.044Z,18.97
2018-11-27T09:42:43.247Z,14.47
2018-11-27T09:45:20.210Z,17.03
2018-11-27T09:47:51.370Z,13.57
2018-11-27T09:50:20.893Z,14.20
2018-11-27T09:52:49.211Z,12.70
2018-11-27T09:55:20.321Z,15.60
2018-11-27T09:57:48.575Z,15.50
2018-11-27T10:00:26.790Z,17.10
2018-11-27T10:02:57.019Z,14.27
2018-11-27T10:05:25.175Z,15.80
2018-11-27T10:07:53.380Z,12.87
2018-11-27T10:10:23.422Z,10.67
2018-11-27T10:12:51.621Z,12.07
2018-11-27T10:15:21.775Z,10.13
2018-11-27T10:17:51.194Z,13.60
2018-11-27T10:20:20.423Z,12.43
2018-11-27T10:22:48.606Z,7.43
2018-11-27T10:25:16.764Z,6.20
2018-11-27T10:27:45.218Z,9.30
2018-11-27T10:30:19.643Z,10.37
2018-11-27T10:32:47.996Z,12.87
2018-11-27T10:35:27.661Z,9.57
2018-11-27T10:37:55.882Z,13.83
2018-11-27T10:40:24.041Z,8.63
2018-11-27T10:42:52.360Z,8.17
2018-11-27T10:45:21.540Z,10.87
2018-11-27T10:47:50.832Z,9.63
2018-11-27T10:50:19.236Z,16.23
2018-11-27T10:52:48.549Z,14.37
2018-11-27T10:55:17.405Z,13.00
2018-11-27T10:57:45.652Z,11.60
2018-11-27T11:00:21.303Z,10.07
2018-11-27T11:02:54.903Z,9.23
2018-11-27T11:05:27.696Z,9.83
2018-11-27T11:07:54.657Z,12.23
2018-11-27T11:10:22.835Z,9.80
2018-11-27T11:12:51.085Z,8.77
2018-11-27T11:15:19.262Z,13.27
2018-11-27T11:17:47.491Z,14.90
2018-11-27T11:20:15.655Z,16.13
2018-11-27T11:22:43.839Z,10.33
2018-11-27T11:25:14.337Z,11.93
2018-11-27T11:27:42.876Z,9.73
2018-11-27T11:30:17.120Z,11.00
2018-11-27T11:32:45.368Z,13.03
2018-11-27T11:35:13.610Z,11.47
2018-11-27T11:37:41.922Z,12.30
2018-11-27T11:40:19.330Z,12.23
2018-11-27T11:42:48.188Z,10.10
2018-11-27T11:45:16.358Z,10.60
2018-11-27T11:47:44.549Z,10.30
2018-11-27T11:50:16.837Z,10.30
2018-11-27T11:52:46.579Z,10.83
2018-11-27T11:55:15.696Z,10.60
2018-11-27T11:57:44.152Z,9.97
2018-11-27T12:00:20.571Z,10.50
2018-11-27T12:02:49.792Z,10.77
2018-11-27T12:05:18.287Z,10.60
2018-11-27T12:07:46.499Z,13.33
2018-11-27T12:10:15.666Z,13.60
2018-11-27T12:12:45.705Z,11.83
2018-11-27T12:15:18.673Z,12.77
2018-11-27T12:17:47.519Z,11.30
2018-11-27T12:20:16.644Z,11.83
2018-11-27T12:22:49.520Z,11.13
2018-11-27T12:25:17.812Z,10.57
2018-11-27T12:27:45.999Z,9.63
2018-11-27T12:30:18.042Z,11.33
2018-11-27T12:32:46.272Z,12.70
2018-11-27T12:35:15.102Z,16.33
2018-11-27T12:37:43.328Z,17.57
2018-11-27T12:40:17.490Z,15.17
2018-11-27T12:42:45.683Z,15.33
2018-11-27T12:45:18.214Z,15.60
2018-11-27T12:47:46.481Z,14.30
2018-11-27T12:50:20.961Z,12.43
2018-11-27T12:52:49.155Z,13.07
2018-11-27T12:55:22.471Z,11.60
2018-11-27T12:57:50.660Z,11.30
2018-11-27T13:00:20.077Z,12.20
2018-11-27T13:02:48.389Z,11.47
2018-11-27T13:05:22.952Z,11.73
2018-11-27T13:07:52.428Z,12.63
2018-11-27T13:10:20.604Z,10.77
2018-11-27T13:12:48.792Z,12.30
2018-11-27T13:15:19.766Z,12.57
2018-11-27T13:17:49.006Z,14.10
2018-11-27T13:20:17.992Z,15.00
2018-11-27T13:22:46.427Z,13.77
2018-11-27T13:25:19.938Z,19.00
2018-11-27T13:27:48.915Z,12.33
2018-11-27T13:30:19.438Z,13.80
2018-11-27T13:32:49.240Z,14.00
2018-11-27T13:35:17.413Z,14.00
2018-11-27T13:37:46.619Z,11.97
2018-11-27T13:40:14.783Z,11.73
2018-11-27T13:42:42.991Z,13.17
2018-11-27T13:45:12.532Z,10.17
2018-11-27T13:47:40.928Z,12.60
2018-11-27T13:50:10.855Z,11.50
2018-11-27T13:52:39.464Z,13.33
2018-11-27T13:55:11.402Z,13.57
2018-11-27T13:57:39.567Z,12.23
2018-11-27T14:00:10.804Z,11.00
2018-11-27T14:02:39.022Z,11.63
2018-11-27T14:05:11.635Z,12.27
2018-11-27T14:07:39.844Z,11.33
2018-11-27T14:10:09.562Z,12.13
2018-11-27T14:12:37.833Z,12.50
2018-11-27T14:15:12.977Z,14.27
2018-11-27T14:17:41.266Z,11.77
2018-11-27T14:20:09.482Z,12.40
2018-11-27T14:22:37.660Z,14.10
2018-11-27T14:25:08.922Z,11.40
2018-11-27T14:27:39.858Z,13.80
2018-11-27T14:30:21.961Z,13.17
2018-11-27T14:32:55.469Z,13.23
2018-11-27T14:35:27.151Z,10.27
2018-11-27T14:37:55.491Z,11.03
2018-11-27T14:40:25.119Z,11.40
2018-11-27T14:42:53.374Z,11.90
2018-11-27T14:45:26.917Z,11.03
2018-11-27T14:47:59.154Z,13.40
2018-11-27T14:50:29.034Z,12.07
2018-11-27T14:52:57.234Z,10.70
2018-11-27T14:55:27.448Z,13.60
2018-11-27T14:57:55.630Z,11.57
2018-11-27T15:00:24.483Z,11.87
2018-11-27T15:02:52.763Z,10.13
2018-11-27T15:05:27.310Z,11.73
2018-11-27T15:07:55.487Z,11.37
2018-11-27T15:10:23.741Z,12.93
2018-11-27T15:12:52.039Z,10.93
2018-11-27T15:15:20.233Z,12.47
2018-11-27T15:17:48.400Z,12.23
2018-11-27T15:20:17.912Z,14.87
2018-11-27T15:22:46.127Z,8.50
2018-11-27T15:25:14.323Z,11.27
2018-11-27T15:27:42.524Z,11.63
2018-11-27T15:30:12.315Z,10.53
2018-11-27T15:32:40.538Z,10.87
2018-11-27T15:35:09.279Z,11.57
2018-11-27T15:37:37.452Z,13.47
2018-11-27T15:40:10.227Z,11.23
2018-11-27T15:42:38.418Z,15.03
2018-11-27T15:45:08.531Z,13.37
2018-11-27T15:47:36.745Z,10.57
2018-11-27T15:50:06.459Z,14.00
2018-11-27T15:52:34.639Z,13.03
2018-11-27T15:55:02.858Z,15.10
2018-11-27T15:57:31.031Z,12.43
2018-11-27T15:59:59.317Z,10.57
2018-11-27T16:02:28.236Z,12.93
2018-11-27T16:04:56.847Z,12.70
2018-11-27T16:07:25.535Z,8.70
2018-11-27T16:09:53.724Z,7.43
2018-11-27T16:12:21.899Z,7.83
2018-11-27T16:14:50.128Z,12.63
2018-11-27T16:17:18.306Z,12.40
2018-11-27T16:19:46.512Z,9.77
2018-11-27T16:22:14.676Z,11.73
2018-11-27T16:24:42.895Z,12.90
2018-11-27T16:27:11.062Z,12.00
2018-11-27T16:29:39.248Z,11.00
2018-11-27T16:32:07.418Z,15.13
2018-11-27T16:34:35.639Z,15.13
2018-11-27T16:37:03.823Z,13.73
2018-11-27T16:39:31.984Z,8.70
2018-11-27T16:42:00.325Z,15.47
2018-11-27T16:44:28.527Z,18.03
2018-11-27T16:46:56.719Z,15.50
2018-11-27T16:49:24.895Z,9.23
2018-11-27T16:51:53.080Z,11.97
2018-11-27T16:54:21.247Z,10.63
2018-11-27T16:56:49.447Z,12.30
2018-11-27T16:59:17.635Z,9.77
2018-11-27T17:01:45.848Z,13.97
2018-11-27T17:04:14.025Z,12.50
2018-11-27T17:06:42.233Z,9.90
2018-11-27T17:09:10.863Z,9.53
2018-11-27T17:11:39.095Z,7.90
2018-11-27T17:14:07.555Z,11.23
2018-11-27T17:16:35.829Z,7.37
2018-11-27T17:19:03.994Z,8.70
2018-11-27T17:21:32.182Z,6.10
2018-11-27T17:24:00.371Z,7.43
2018-11-27T17:26:28.577Z,7.53
2018-11-27T17:28:57.706Z,5.83
2018-11-27T17:31:25.982Z,6.50
2018-11-27T17:34:00.328Z,4.33
2018-11-27T17:36:28.564Z,6.97
2018-11-27T17:38:56.723Z,9.17
2018-11-27T17:41:25.354Z,5.43
2018-11-27T17:43:54.032Z,6.90
2018-11-27T17:48:59.757Z,8.40
2018-11-27T17:51:28.013Z,7.37
2018-11-27T17:53:56.380Z,6.63
2018-11-27T17:56:24.904Z,9.50
2018-11-27T17:58:53.081Z,8.57
2018-11-27T18:01:21.255Z,10.73
2018-11-27T18:03:49.997Z,10.80
2018-11-27T18:06:18.219Z,11.43
2018-11-27T18:08:46.435Z,13.57
2018-11-27T18:11:14.967Z,13.30
2018-11-27T18:13:43.501Z,12.53
2018-11-27T18:16:11.743Z,13.47
2018-11-27T18:18:39.903Z,11.40
2018-11-27T18:21:08.130Z,11.13
2018-11-27T18:23:36.290Z,11.63
2018-11-27T18:26:04.598Z,8.83
2018-11-27T18:28:34.175Z,11.73
2018-11-27T18:31:02.588Z,10.10
2018-11-27T18:33:30.779Z,13.33
2018-11-27T18:35:58.949Z,8.13
2018-11-27T18:38:28.025Z,6.83
2018-11-27T18:40:56.195Z,7.23
2018-11-27T18:43:24.492Z,8.40
2018-11-27T18:45:52.915Z,9.33
2018-11-27T18:48:21.571Z,8.33
2018-11-27T18:50:49.765Z,10.10
2018-11-27T18:53:18.018Z,10.67
2018-11-27T18:55:46.276Z,8.73
2018-11-27T18:58:14.628Z,10.73
2018-11-27T19:00:42.809Z,11.43
2018-11-27T19:03:11.036Z,9.70
2018-11-27T19:05:39.352Z,8.50
2018-11-27T19:08:07.576Z,11.37
2018-11-27T19:10:35.752Z,10.67
2018-11-27T19:13:04.516Z,11.00
2018-11-27T19:15:37.233Z,12.13
2018-11-27T19:18:23.712Z,12.17
2018-11-27T19:20:52.036Z,11.87
2018-11-27T19:23:21.588Z,10.80
2018-11-27T19:25:49.823Z,12.97
2018-11-27T19:28:18.160Z,10.80
2018-11-27T19:30:46.652Z,12.17
2018-11-27T19:33:14.907Z,9.67
2018-11-27T19:35:43.287Z,11.53
2018-11-27T19:38:14.827Z,9.97
2018-11-27T19:40:43.001Z,13.00
2018-11-27T19:43:11.448Z,10.23
2018-11-27T19:45:39.667Z,9.63
2018-11-27T19:48:08.903Z,10.70
2018-11-27T19:50:37.702Z,10.07
2018-11-27T19:53:11.913Z,9.63
2018-11-27T19:55:37.517Z,10.03
2018-11-27T19:58:06.571Z,10.53
2018-11-27T20:00:34.946Z,11.67
2018-11-27T20:03:03.223Z,8.07
2018-11-27T20:05:32.551Z,11.37
2018-11-27T20:08:01.027Z,11.03
2018-11-27T20:10:29.440Z,10.17
2018-11-27T20:12:57.679Z,9.30
2018-11-27T20:15:27.672Z,10.87
2018-11-27T20:17:56.404Z,11.20
2018-11-27T20:20:25.744Z,12.07
2018-11-27T20:22:54.991Z,11.90
2018-11-27T20:25:23.607Z,13.80
2018-11-27T20:27:52.288Z,10.43
2018-11-27T20:30:23.502Z,10.93
2018-11-27T20:32:55.980Z,10.17
2018-11-27T20:35:24.167Z,11.70
2018-11-27T20:37:53.311Z,13.90
2018-11-27T20:40:21.563Z,11.40
2018-11-27T20:42:49.920Z,12.03
2018-11-27T20:45:19.787Z,8.47
2018-11-27T20:47:49.673Z,9.30
2018-11-27T20:50:20.030Z,9.97
2018-11-27T20:52:48.349Z,9.70
2018-11-27T20:55:16.578Z,8.23
2018-11-27T20:57:49.335Z,9.43
2018-11-27T21:00:21.861Z,7.03
2018-11-27T21:02:50.987Z,7.40
2018-11-27T21:05:19.165Z,10.80
2018-11-27T21:07:47.418Z,10.63
2018-11-27T21:10:15.681Z,10.33
2018-11-27T21:12:44.459Z,10.73
2018-11-27T21:15:14.654Z,10.07
2018-11-27T21:17:42.837Z,9.47
2018-11-27T21:20:12.852Z,9.60
2018-11-27T21:22:41.163Z,11.27
2018-11-27T21:25:11.768Z,10.00
2018-11-27T21:27:39.961Z,8.53
2018-11-27T21:30:15.159Z,11.40
2018-11-27T21:32:43.510Z,9.87
2018-11-27T21:35:12.955Z,10.03
2018-11-27T21:37:41.172Z,8.27
2018-11-27T21:40:11.359Z,9.60
2018-11-27T21:42:39.552Z,10.90
2018-11-27T21:45:18.394Z,10.70
2018-11-27T21:47:47.175Z,9.00
2018-11-27T21:50:16.514Z,10.43
2018-11-27T21:52:45.847Z,11.53
2018-11-27T21:55:14.656Z,9.77
2018-11-27T21:57:42.973Z,11.73
2018-11-27T22:00:24.698Z,6.40
2018-11-27T22:02:54.900Z,8.47
2018-11-27T22:05:23.109Z,7.10
2018-11-27T22:07:51.289Z,5.73
2018-11-27T22:10:20.615Z,7.47
2018-11-27T22:12:50.799Z,9.77
2018-11-27T22:15:21.248Z,9.70
2018-11-27T22:17:49.483Z,7.10
2018-11-27T22:20:21.256Z,9.63
2018-11-27T22:22:45.876Z,7.67
2018-11-27T22:25:14.072Z,7.73
2018-11-27T22:27:42.277Z,7.73
2018-11-27T22:30:11.923Z,8.00
2018-11-27T22:32:40.719Z,6.80
2018-11-27T22:35:09.236Z,7.20
2018-11-27T22:37:37.394Z,5.80
2018-11-27T22:40:11.075Z,5.37
2018-11-27T22:42:39.312Z,7.20
2018-11-27T22:45:10.869Z,9.47
2018-11-27T22:47:39.059Z,7.00
2018-11-27T22:50:10.619Z,5.30
2018-11-27T22:52:38.823Z,5.63
2018-11-27T22:55:07.343Z,5.70
2018-11-27T22:57:35.548Z,5.23
2018-11-27T23:00:04.447Z,5.23
2018-11-27T23:02:32.619Z,10.77
2018-11-27T23:05:00.812Z,8.63
2018-11-27T23:07:34.282Z,7.93
2018-11-27T23:10:02.473Z,6.07
2018-11-27T23:12:30.653Z,5.00
2018-11-27T23:14:58.857Z,6.57
2018-11-27T23:17:27.023Z,8.77
2018-11-27T23:19:55.207Z,7.60
2018-11-27T23:22:23.379Z,11.17
2018-11-27T23:24:51.571Z,7.87
2018-11-27T23:27:19.950Z,7.07
2018-11-27T23:29:48.140Z,9.33
2018-11-27T23:32:16.308Z,8.63
2018-11-27T23:34:44.514Z,11.57
2018-11-27T23:37:13.672Z,10.30
2018-11-27T23:39:41.871Z,13.93
2018-11-27T23:42:10.035Z,12.33
2018-11-27T23:44:38.210Z,12.80
2018-11-27T23:47:06.380Z,13.17
2018-11-27T23:49:34.536Z,14.10
2018-11-27T23:52:02.728Z,13.63
2018-11-27T23:54:30.895Z,13.33
2018-11-27T23:56:59.082Z,13.50
2018-11-27T23:59:27.227Z,14.53
